Time;durP1;ratioP1;P1;durP2;ratioP2;P2;SDS_P1;SDS_P2;PMS_P1;PMS_P2;Temp;Humidity;BMP_temperature;BMP_pressure;BME280_temperature;BME280_humidity;BME280_pressure;Samples;Min_cycle;Max_cycle;Signal;HPM_P1;HPM_P2
2022/08/27 00:00:54;;;;;;;;;;;16.10;99.90;;;;;;5078676;28;19924;-88
2022/08/27 00:03:20;;;;;;;;;;;16.00;99.90;;;;;;5079091;28;19920;-87
2022/08/27 00:05:45;;;;;;;;;;;16.10;99.90;;;;;;5045790;28;19926;-87
2022/08/27 00:08:11;;;;;;;;;;;16.10;99.90;;;;;;5060813;28;19946;-87
2022/08/27 00:10:36;;;;;;;;;;;16.00;99.90;;;;;;5044779;28;20340;-87
2022/08/27 00:13:02;;;;;;;;;;;16.00;99.90;;;;;;5078862;28;20291;-87
2022/08/27 00:15:28;;;;;;;;;;;16.00;99.90;;;;;;5061475;28;19927;-87
2022/08/27 00:17:53;;;;;;;;;;;16.00;99.90;;;;;;5061117;28;19963;-86
2022/08/27 00:20:20;;;;;;;;;;;16.00;99.90;;;;;;5044427;28;19967;-87
2022/08/27 00:22:45;;;;;;;;;;;16.00;99.90;;;;;;5044065;28;19976;-87
2022/08/27 00:25:11;;;;;;;;;;;16.10;99.90;;;;;;5076955;28;20018;-87
2022/08/27 00:27:37;;;;;;;;;;;16.10;99.90;;;;;;5061052;28;19919;-87
2022/08/27 00:30:03;;;;;;;;;;;16.00;99.90;;;;;;5060864;28;19924;-87
2022/08/27 00:32:29;;;;;;;;;;;16.10;99.90;;;;;;5078101;28;19924;-87
2022/08/27 00:34:54;;;;;;;;;;;16.10;99.90;;;;;;5077780;28;19923;-87
2022/08/27 00:37:20;;;;;;;;;;;16.10;99.90;;;;;;5078227;28;19931;-87
2022/08/27 00:39:45;;;;;;;;;;;16.10;99.90;;;;;;5077841;28;20239;-87
2022/08/27 00:42:11;;;;;;;;;;;16.10;99.90;;;;;;5060672;28;19970;-86
2022/08/27 00:44:37;;;;;;;;;;;16.20;99.90;;;;;;5060882;28;20431;-87
2022/08/27 00:47:04;;;;;;;;;;;16.20;99.90;;;;;;5076858;28;19919;-87
2022/08/27 00:49:36;;;;;;;;;;;16.10;99.90;;;;;;5059876;28;20402;-87
2022/08/27 00:52:04;;;;;;;;;;;16.10;99.90;;;;;;5077105;28;19927;-87
2022/08/27 00:54:29;;;;;;;;;;;16.10;99.90;;;;;;5060840;28;20034;-87
2022/08/27 00:56:56;;;;;;;;;;;16.10;99.90;;;;;;5061424;28;19965;-87
2022/08/27 00:59:23;;;;;;;;;;;16.10;99.90;;;;;;5045314;28;20291;-87
2022/08/27 01:04:33;;;;;;;;;;;16.20;99.90;;;;;;5078151;28;19942;-87
2022/08/27 01:06:58;;;;;;;;;;;16.20;99.90;;;;;;5060921;28;19927;-87
2022/08/27 01:09:24;;;;;;;;;;;16.20;99.90;;;;;;5060947;28;19950;-87
2022/08/27 01:11:50;;;;;;;;;;;16.10;99.90;;;;;;5060904;28;20389;-87
2022/08/27 01:14:16;;;;;;;;;;;16.10;99.90;;;;;;5076739;28;19923;-87
2022/08/27 01:16:44;;;;;;;;;;;16.10;99.90;;;;;;5060795;28;20010;-86
2022/08/27 01:19:17;;;;;;;;;;;16.10;99.90;;;;;;5061115;28;20314;-87
2022/08/27 01:21:42;;;;;;;;;;;16.00;99.90;;;;;;5062705;28;19975;-86
2022/08/27 01:24:17;;;;;;;;;;;15.90;99.90;;;;;;5088713;28;19983;-87
2022/08/27 01:26:43;;;;;;;;;;;15.90;99.90;;;;;;5067725;28;19973;-87
2022/08/27 01:29:08;;;;;;;;;;;15.80;99.90;;;;;;5079057;28;19928;-87
2022/08/27 01:31:34;;;;;;;;;;;15.80;99.90;;;;;;5087017;28;19924;-86
2022/08/27 01:34:00;;;;;;;;;;;15.80;99.90;;;;;;5065614;28;19920;-87
2022/08/27 01:36:26;;;;;;;;;;;15.80;99.90;;;;;;5061538;28;19920;-87
2022/08/27 01:38:52;;;;;;;;;;;15.70;99.90;;;;;;5059854;28;19930;-87
2022/08/27 01:41:17;;;;;;;;;;;15.70;99.90;;;;;;5060287;28;19920;-87
2022/08/27 01:43:43;;;;;;;;;;;16.70;99.90;;;;;;5075707;28;19920;-87
2022/08/27 01:46:08;;;;;;;;;;;15.60;99.90;;;;;;5082409;28;20402;-87
2022/08/27 01:48:34;;;;;;;;;;;15.50;99.90;;;;;;5065919;28;19924;-88
2022/08/27 01:51:00;;;;;;;;;;;15.50;99.90;;;;;;5081593;28;20033;-87
2022/08/27 01:53:25;;;;;;;;;;;15.40;99.90;;;;;;5060390;28;19920;-87
2022/08/27 01:55:51;;;;;;;;;;;15.30;99.90;;;;;;5060731;28;19919;-87
2022/08/27 01:58:17;;;;;;;;;;;15.30;99.90;;;;;;5059366;28;19920;-86
2022/08/27 02:00:43;;;;;;;;;;;15.20;99.90;;;;;;5057847;28;19920;-87
2022/08/27 02:03:10;;;;;;;;;;;15.20;99.90;;;;;;5042684;28;19924;-87
2022/08/27 02:05:37;;;;;;;;;;;15.20;99.90;;;;;;5075685;28;19920;-87
2022/08/27 02:08:04;;;;;;;;;;;15.10;99.90;;;;;;5075946;28;19930;-86
2022/08/27 02:10:34;;;;;;;;;;;15.10;99.90;;;;;;5043291;28;20372;-87
2022/08/27 02:13:00;;;;;;;;;;;15.00;99.90;;;;;;5059833;28;20357;-88
2022/08/27 02:15:25;;;;;;;;;;;15.00;99.90;;;;;;5075739;28;19974;-87
2022/08/27 02:17:51;;;;;;;;;;;14.90;99.90;;;;;;5076999;28;19927;-87
2022/08/27 02:20:17;;;;;;;;;;;14.90;99.90;;;;;;5078106;28;20349;-85
2022/08/27 02:22:42;;;;;;;;;;;14.80;99.90;;;;;;5079354;28;19920;-87
2022/08/27 02:25:08;;;;;;;;;;;14.80;99.90;;;;;;5078902;28;19924;-85
2022/08/27 02:27:34;;;;;;;;;;;14.70;99.90;;;;;;5063211;28;19969;-86
2022/08/27 02:29:59;;;;;;;;;;;14.70;99.90;;;;;;5064042;28;19924;-87
2022/08/27 02:32:27;;;;;;;;;;;14.70;99.90;;;;;;5063315;28;19923;-88
2022/08/27 02:34:52;;;;;;;;;;;14.70;99.90;;;;;;5080970;28;20394;-86
2022/08/27 02:37:18;;;;;;;;;;;14.70;99.90;;;;;;5080074;28;19920;-87
2022/08/27 02:39:44;;;;;;;;;;;14.60;99.90;;;;;;5079918;28;19931;-87
2022/08/27 02:42:09;;;;;;;;;;;14.60;99.90;;;;;;5078586;28;19963;-86
2022/08/27 02:44:36;;;;;;;;;;;14.80;99.90;;;;;;5078036;28;19920;-86
2022/08/27 02:47:02;;;;;;;;;;;14.60;99.90;;;;;;5062687;28;19924;-87
2022/08/27 02:49:28;;;;;;;;;;;14.60;99.90;;;;;;5062556;28;19966;-87
2022/08/27 02:51:55;;;;;;;;;;;14.70;99.90;;;;;;5064081;28;19920;-86
2022/08/27 02:54:21;;;;;;;;;;;14.70;99.90;;;;;;5061957;28;19926;-87
2022/08/27 02:56:47;;;;;;;;;;;14.70;99.90;;;;;;5078536;28;19931;-87
2022/08/27 02:59:13;;;;;;;;;;;14.80;99.90;;;;;;5062587;28;19920;-86
2022/08/27 03:01:39;;;;;;;;;;;14.80;99.90;;;;;;5061829;28;19947;-87
2022/08/27 03:04:04;;;;;;;;;;;14.80;99.90;;;;;;5097050;28;20359;-87
2022/08/27 03:06:30;;;;;;;;;;;14.80;99.90;;;;;;5046115;28;20252;-87
2022/08/27 03:08:56;;;;;;;;;;;14.90;99.90;;;;;;5080450;28;19966;-87
2022/08/27 03:11:22;;;;;;;;;;;14.90;99.90;;;;;;5063003;28;19938;-87
2022/08/27 03:13:47;;;;;;;;;;;15.00;99.90;;;;;;5080265;28;20006;-86
2022/08/27 03:16:13;;;;;;;;;;;15.00;99.90;;;;;;5063778;28;19974;-87
2022/08/27 03:18:39;;;;;;;;;;;15.00;99.90;;;;;;5063909;28;20114;-87
2022/08/27 03:21:04;;;;;;;;;;;15.10;99.90;;;;;;5062897;28;19920;-87
2022/08/27 03:23:33;;;;;;;;;;;15.10;99.90;;;;;;5063172;28;20018;-87
2022/08/27 03:25:59;;;;;;;;;;;15.10;99.90;;;;;;5063615;28;20378;-87
2022/08/27 03:28:34;;;;;;;;;;;15.10;99.90;;;;;;5062892;28;19920;-87
2022/08/27 03:31:01;;;;;;;;;;;15.10;99.90;;;;;;5079101;28;19920;-87
2022/08/27 03:33:28;;;;;;;;;;;15.10;99.90;;;;;;5045557;28;20078;-87
2022/08/27 03:35:53;;;;;;;;;;;15.10;99.90;;;;;;5078945;28;19931;-86
2022/08/27 03:38:19;;;;;;;;;;;15.00;99.90;;;;;;5061147;28;19924;-86
2022/08/27 03:40:44;;;;;;;;;;;15.00;99.90;;;;;;5078321;28;19920;-87
2022/08/27 03:43:11;;;;;;;;;;;14.90;99.90;;;;;;5062096;28;19966;-87
2022/08/27 03:45:36;;;;;;;;;;;14.90;99.90;;;;;;5061920;28;19924;-87
2022/08/27 03:48:02;;;;;;;;;;;14.80;99.90;;;;;;5062329;28;20003;-87
2022/08/27 03:50:27;;;;;;;;;;;14.80;99.90;;;;;;5045416;28;19924;-88
2022/08/27 03:52:53;;;;;;;;;;;14.80;99.90;;;;;;5078689;28;19970;-87
2022/08/27 03:55:19;;;;;;;;;;;14.70;99.90;;;;;;5079648;28;19990;-86
2022/08/27 03:57:44;;;;;;;;;;;14.70;99.90;;;;;;5079528;28;19942;-87
2022/08/27 04:00:13;;;;;;;;;;;14.60;99.90;;;;;;5062902;28;19920;-87
2022/08/27 04:02:39;;;;;;;;;;;14.60;99.90;;;;;;5079952;28;19927;-87
2022/08/27 04:05:06;;;;;;;;;;;14.50;99.90;;;;;;5078340;28;19928;-88
2022/08/27 04:07:32;;;;;;;;;;;14.50;99.90;;;;;;5061041;28;19924;-87
2022/08/27 04:09:57;;;;;;;;;;;14.50;99.90;;;;;;5078394;28;20432;-87
2022/08/27 04:12:23;;;;;;;;;;;14.60;99.90;;;;;;5078979;28;20295;-87
2022/08/27 04:14:48;;;;;;;;;;;14.60;99.90;;;;;;5096097;28;19976;-87
2022/08/27 04:17:14;;;;;;;;;;;14.70;99.90;;;;;;5062173;28;19923;-86
2022/08/27 04:19:40;;;;;;;;;;;14.70;99.90;;;;;;5045490;28;19920;-87
2022/08/27 04:22:06;;;;;;;;;;;14.70;99.90;;;;;;5061078;28;19920;-87
2022/08/27 04:24:32;;;;;;;;;;;14.70;99.90;;;;;;5077955;28;20016;-87
2022/08/27 04:26:58;;;;;;;;;;;14.70;99.90;;;;;;5047307;28;19920;-87
2022/08/27 04:29:24;;;;;;;;;;;14.80;99.90;;;;;;5088820;28;19934;-87
2022/08/27 04:31:50;;;;;;;;;;;14.80;99.90;;;;;;5087347;28;19931;-87
2022/08/27 04:34:16;;;;;;;;;;;14.80;99.90;;;;;;5080272;28;19942;-87
2022/08/27 04:36:41;;;;;;;;;;;14.80;99.90;;;;;;5069636;28;19920;-87
2022/08/27 04:39:07;;;;;;;;;;;14.80;99.90;;;;;;5064337;28;19928;-88
2022/08/27 04:41:33;;;;;;;;;;;14.80;99.90;;;;;;5074027;28;19991;-87
2022/08/27 04:44:01;;;;;;;;;;;14.70;99.90;;;;;;5073911;28;19964;-87
2022/08/27 04:46:27;;;;;;;;;;;14.70;99.90;;;;;;5057578;28;19926;-87
2022/08/27 04:48:54;;;;;;;;;;;14.70;99.90;;;;;;5074523;28;19927;-88
2022/08/27 04:51:20;;;;;;;;;;;14.70;99.90;;;;;;5057926;28;19931;-87
2022/08/27 04:53:46;;;;;;;;;;;14.70;99.90;;;;;;5074424;28;19936;-87
2022/08/27 04:56:13;;;;;;;;;;;14.70;99.90;;;;;;5056141;28;19920;-87
2022/08/27 04:58:38;;;;;;;;;;;14.70;99.90;;;;;;5055696;28;19927;-87
2022/08/27 05:01:04;;;;;;;;;;;14.60;99.90;;;;;;5080411;28;19928;-87
2022/08/27 05:03:29;;;;;;;;;;;14.60;99.90;;;;;;5079308;28;19935;-87
2022/08/27 05:05:59;;;;;;;;;;;14.60;99.90;;;;;;5064408;28;19980;-87
2022/08/27 05:08:24;;;;;;;;;;;14.60;99.90;;;;;;5078510;28;19925;-88
2022/08/27 05:10:50;;;;;;;;;;;14.50;99.90;;;;;;5071565;28;20257;-88
2022/08/27 05:13:17;;;;;;;;;;;14.50;99.90;;;;;;5074331;28;19925;-87
2022/08/27 05:15:43;;;;;;;;;;;14.50;99.90;;;;;;5073941;28;19920;-87
2022/08/27 05:18:09;;;;;;;;;;;14.50;99.90;;;;;;5077373;28;19966;-87
2022/08/27 05:20:40;;;;;;;;;;;14.60;99.90;;;;;;5062184;28;19932;-88
2022/08/27 05:23:06;;;;;;;;;;;14.60;99.90;;;;;;5080038;28;20007;-86
2022/08/27 05:25:31;;;;;;;;;;;14.60;99.90;;;;;;5077773;28;19990;-87
2022/08/27 05:27:57;;;;;;;;;;;14.60;99.90;;;;;;5054254;28;19920;-88
2022/08/27 05:30:22;;;;;;;;;;;14.60;99.90;;;;;;5070867;28;19969;-88
2022/08/27 05:32:48;;;;;;;;;;;14.60;99.90;;;;;;5054082;28;20264;-87
2022/08/27 05:35:14;;;;;;;;;;;14.60;99.90;;;;;;5071052;28;19921;-87
2022/08/27 05:37:39;;;;;;;;;;;14.80;99.90;;;;;;5053960;28;20364;-88
2022/08/27 05:40:05;;;;;;;;;;;14.70;99.90;;;;;;5070562;28;19925;-87
2022/08/27 05:42:31;;;;;;;;;;;14.80;99.90;;;;;;5070354;28;19928;-88
2022/08/27 05:44:56;;;;;;;;;;;14.90;99.90;;;;;;5053660;28;19924;-88
2022/08/27 05:47:22;;;;;;;;;;;15.00;99.90;;;;;;5037649;28;19969;-87
2022/08/27 05:49:52;;;;;;;;;;;15.00;99.90;;;;;;5036695;28;20356;-88
2022/08/27 05:52:17;;;;;;;;;;;15.00;99.90;;;;;;5070673;28;19928;-88
2022/08/27 05:54:43;;;;;;;;;;;15.00;99.90;;;;;;5070335;28;19920;-87
2022/08/27 05:57:09;;;;;;;;;;;15.00;99.90;;;;;;5053855;28;20440;-88
2022/08/27 06:02:19;;;;;;;;;;;15.90;99.90;;;;;;5056292;28;20123;-87
2022/08/27 06:04:45;;;;;;;;;;;16.80;99.90;;;;;;5070163;28;20263;-87
2022/08/27 06:07:11;;;;;;;;;;;17.80;99.90;;;;;;5087355;28;20433;-88
2022/08/27 06:09:36;;;;;;;;;;;18.60;99.90;;;;;;5070175;28;19928;-87
2022/08/27 06:12:02;;;;;;;;;;;19.30;99.90;;;;;;5070406;28;19938;-88
2022/08/27 06:14:27;;;;;;;;;;;20.00;99.90;;;;;;5053507;28;20275;-88
2022/08/27 06:16:53;;;;;;;;;;;20.30;99.90;;;;;;5069977;28;19921;-88
2022/08/27 06:19:19;;;;;;;;;;;20.80;99.90;;;;;;5070336;28;20380;-88
2022/08/27 06:21:44;;;;;;;;;;;21.20;99.90;;;;;;5053010;28;19920;-88
2022/08/27 06:24:11;;;;;;;;;;;21.50;99.90;;;;;;5070239;28;19920;-88
2022/08/27 06:26:37;;;;;;;;;;;21.90;99.90;;;;;;5070169;28;19924;-88
2022/08/27 06:29:03;;;;;;;;;;;21.80;99.90;;;;;;5087191;28;19985;-88
2022/08/27 06:31:28;;;;;;;;;;;21.80;99.90;;;;;;5069846;28;20040;-88
2022/08/27 06:33:56;;;;;;;;;;;22.40;99.90;;;;;;5053322;28;19920;-89
2022/08/27 06:36:22;;;;;;;;;;;22.70;99.90;;;;;;5053750;28;19932;-90
2022/08/27 06:38:48;;;;;;;;;;;23.40;99.90;;;;;;5036543;28;19925;-89
2022/08/27 06:41:14;;;;;;;;;;;23.70;99.90;;;;;;5071465;28;19920;-89
2022/08/27 06:43:40;;;;;;;;;;;23.20;99.90;;;;;;5069697;28;19970;-88
2022/08/27 06:46:06;;;;;;;;;;;23.90;99.90;;;;;;5053315;28;19972;-89
2022/08/27 06:48:32;;;;;;;;;;;23.70;99.90;;;;;;5053576;28;20013;-89
2022/08/27 06:50:57;;;;;;;;;;;24.90;99.90;;;;;;5069534;28;19975;-89
2022/08/27 06:53:23;;;;;;;;;;;24.40;99.90;;;;;;5053374;28;20360;-89
2022/08/27 06:55:49;;;;;;;;;;;24.60;99.90;;;;;;5053120;28;20015;-89
2022/08/27 06:58:15;;;;;;;;;;;26.00;99.90;;;;;;5053690;28;19970;-89
2022/08/27 07:00:41;;;;;;;;;;;26.90;99.90;;;;;;5070364;28;20007;-89
2022/08/27 07:03:06;;;;;;;;;;;26.40;99.90;;;;;;5036309;28;20014;-91
2022/08/27 07:05:32;;;;;;;;;;;26.10;99.90;;;;;;5054031;28;19921;-90
2022/08/27 07:07:58;;;;;;;;;;;24.10;99.90;;;;;;5073448;28;20016;-90
2022/08/27 07:10:23;;;;;;;;;;;24.20;99.90;;;;;;5073956;28;20420;-88
2022/08/27 07:12:49;;;;;;;;;;;24.20;99.90;;;;;;5057222;28;19946;-91
2022/08/27 07:15:15;;;;;;;;;;;23.50;99.90;;;;;;5057535;28;19920;-91
2022/08/27 07:17:43;;;;;;;;;;;23.50;99.90;;;;;;5057150;28;20275;-91
2022/08/27 07:20:09;;;;;;;;;;;22.80;99.90;;;;;;5073672;28;20021;-91
2022/08/27 07:22:35;;;;;;;;;;;23.00;99.90;;;;;;5056950;28;19927;-90
2022/08/27 07:25:01;;;;;;;;;;;22.30;99.90;;;;;;5057537;28;19920;-91
2022/08/27 07:27:26;;;;;;;;;;;22.00;99.90;;;;;;5074408;28;19920;-90
2022/08/27 07:29:52;;;;;;;;;;;22.40;99.90;;;;;;5074218;28;19920;-90
2022/08/27 07:32:17;;;;;;;;;;;22.20;99.90;;;;;;5065841;28;20410;-90
2022/08/27 07:34:43;;;;;;;;;;;22.40;99.90;;;;;;5069550;28;20568;-89
2022/08/27 07:37:08;;;;;;;;;;;22.10;99.90;;;;;;5089944;28;19996;-88
2022/08/27 07:39:34;;;;;;;;;;;22.30;99.90;;;;;;5077392;28;19924;-87
2022/08/27 07:44:44;;;;;;;;;;;23.50;99.90;;;;;;5071072;28;19924;-88
2022/08/27 07:47:09;;;;;;;;;;;23.40;99.90;;;;;;5073005;28;19977;-89
2022/08/27 07:49:36;;;;;;;;;;;23.60;99.90;;;;;;5056929;28;19920;-88
2022/08/27 07:52:02;;;;;;;;;;;23.30;99.90;;;;;;5056578;28;19974;-88
2022/08/27 07:54:27;;;;;;;;;;;22.90;99.90;;;;;;5056999;28;19925;-89
2022/08/27 07:56:53;;;;;;;;;;;23.00;99.90;;;;;;5073242;28;19928;-90
2022/08/27 07:59:19;;;;;;;;;;;22.90;99.90;;;;;;5073276;28;20002;-89
2022/08/27 08:01:45;;;;;;;;;;;22.90;99.90;;;;;;5056290;28;20029;-89
2022/08/27 08:04:10;;;;;;;;;;;22.90;99.90;;;;;;5072387;28;19973;-89
2022/08/27 08:06:37;;;;;;;;;;;22.50;99.90;;;;;;5072538;28;19965;-88
2022/08/27 08:09:02;;;;;;;;;;;22.20;99.90;;;;;;5055470;28;20344;-88
2022/08/27 08:11:28;;;;;;;;;;;22.00;99.90;;;;;;5055605;28;19927;-90
2022/08/27 08:13:53;;;;;;;;;;;21.80;99.90;;;;;;5071977;28;19927;-87
2022/08/27 08:16:19;;;;;;;;;;;22.30;99.90;;;;;;5072296;28;19975;-89
2022/08/27 08:18:45;;;;;;;;;;;23.00;99.90;;;;;;5076255;28;19924;-87
2022/08/27 08:21:11;;;;;;;;;;;23.60;99.90;;;;;;5057968;28;20398;-86
2022/08/27 08:23:37;;;;;;;;;;;23.70;99.90;;;;;;5075206;28;19920;-88
2022/08/27 08:26:02;;;;;;;;;;;24.00;99.90;;;;;;5092045;28;20314;-88
2022/08/27 08:28:29;;;;;;;;;;;23.40;99.90;;;;;;5077065;28;19920;-91
2022/08/27 08:30:54;;;;;;;;;;;23.40;99.90;;;;;;5081868;28;19934;-87
2022/08/27 08:33:20;;;;;;;;;;;23.70;99.90;;;;;;5076478;28;20451;-90
2022/08/27 08:35:47;;;;;;;;;;;24.00;99.90;;;;;;5059588;28;19924;-90
2022/08/27 08:38:13;;;;;;;;;;;24.40;99.90;;;;;;5092556;28;19920;-90
2022/08/27 08:40:40;;;;;;;;;;;24.50;99.90;;;;;;5092579;28;20389;-92
2022/08/27 08:43:06;;;;;;;;;;;24.60;99.90;;;;;;5058595;28;19920;-90
2022/08/27 08:45:33;;;;;;;;;;;23.70;99.90;;;;;;5075769;28;19947;-91
2022/08/27 08:48:12;;;;;;;;;;;23.40;99.90;;;;;;5075713;28;20032;-88
2022/08/27 08:50:38;;;;;;;;;;;22.90;99.90;;;;;;5075787;28;19920;-90
2022/08/27 08:53:05;;;;;;;;;;;23.00;99.90;;;;;;5075289;28;19935;-91
2022/08/27 08:55:50;;;;;;;;;;;22.90;99.90;;;;;;5075441;28;19966;-88
2022/08/27 08:58:19;;;;;;;;;;;24.40;99.90;;;;;;5058293;28;19920;-90
2022/08/27 09:00:45;;;;;;;;;;;24.80;99.90;;;;;;5092076;28;20233;-89
2022/08/27 09:03:11;;;;;;;;;;;24.60;99.90;;;;;;5074500;28;20375;-88
2022/08/27 09:05:38;;;;;;;;;;;24.70;99.90;;;;;;5075196;28;19942;-89
2022/08/27 09:08:11;;;;;;;;;;;24.50;99.90;;;;;;5056590;28;19927;-91
2022/08/27 09:10:44;;;;;;;;;;;23.70;99.90;;;;;;5061962;28;19974;-90
2022/08/27 09:13:17;;;;;;;;;;;23.80;99.90;;;;;;5092336;28;19939;-88
2022/08/27 09:15:44;;;;;;;;;;;23.40;99.90;;;;;;5076012;28;20279;-89
2022/08/27 09:18:10;;;;;;;;;;;23.70;99.90;;;;;;5057999;28;19973;-89
2022/08/27 09:20:36;;;;;;;;;;;23.10;99.90;;;;;;5074719;28;19927;-89
2022/08/27 09:23:14;;;;;;;;;;;22.80;99.90;;;;;;5074009;28;19920;-89
2022/08/27 09:25:40;;;;;;;;;;;22.70;99.90;;;;;;5074890;28;20275;-90
2022/08/27 09:29:14;;;;;;;;;;;22.90;99.90;;;;;;5091263;28;19943;-89
2022/08/27 09:30:58;;;;;;;;;;;23.10;99.90;;;;;;5076834;28;19924;-93
2022/08/27 09:38:35;;;;;;;;;;;23.20;99.90;;;;;;5538046;22;19920;-90
2022/08/27 09:41:08;;;;;;;;;;;22.90;99.90;;;;;;5021703;28;20302;-86
2022/08/27 09:43:35;;;;;;;;;;;22.90;99.90;;;;;;5021545;28;19928;-87
2022/08/27 09:46:04;;;;;;;;;;;22.80;99.90;;;;;;5021588;28;20352;-87
2022/08/27 09:48:30;;;;;;;;;;;22.60;99.90;;;;;;5019968;28;20359;-83
2022/08/27 09:51:06;;;;;;;;;;;22.40;99.90;;;;;;5037035;28;19952;-83
2022/08/27 09:53:46;;;;;;;;;;;22.20;99.90;;;;;;5054108;28;20008;-83
2022/08/27 09:56:21;;;;;;;;;;;22.30;99.90;;;;;;5020202;28;19928;-86
2022/08/27 09:58:51;;;;;;;;;;;22.70;99.90;;;;;;5036209;28;20423;-85
2022/08/27 10:01:18;;;;;;;;;;;22.80;99.90;;;;;;5003740;28;19925;-85
2022/08/27 10:03:43;;;;;;;;;;;22.70;99.90;;;;;;5036768;28;20318;-85
2022/08/27 10:06:09;;;;;;;;;;;22.80;99.90;;;;;;5020571;28;19947;-84
2022/08/27 10:08:42;;;;;;;;;;;23.00;99.90;;;;;;5020767;28;20245;-86
2022/08/27 10:11:22;;;;;;;;;;;23.00;99.90;;;;;;5003908;28;20326;-87
2022/08/27 10:13:53;;;;;;;;;;;22.70;99.90;;;;;;5021068;28;19959;-86
2022/08/27 10:16:21;;;;;;;;;;;22.90;99.90;;;;;;5035771;28;19928;-81
2022/08/27 10:18:53;;;;;;;;;;;23.00;99.90;;;;;;5036944;28;19921;-80
2022/08/27 10:21:23;;;;;;;;;;;22.80;99.90;;;;;;5053796;28;19921;-80
2022/08/27 10:24:09;;;;;;;;;;;23.30;99.90;;;;;;5019234;28;19928;-80
2022/08/27 10:26:47;;;;;;;;;;;23.40;99.90;;;;;;5052766;28;19927;-80
2022/08/27 10:29:18;;;;;;;;;;;23.50;99.90;;;;;;5019161;28;19932;-79
2022/08/27 10:32:04;;;;;;;;;;;23.50;99.90;;;;;;5036674;28;19928;-79
2022/08/27 10:34:41;;;;;;;;;;;22.80;99.90;;;;;;5019112;28;19947;-78
2022/08/27 10:37:08;;;;;;;;;;;22.80;99.90;;;;;;5054211;28;20006;-78
2022/08/27 10:39:33;;;;;;;;;;;22.80;99.90;;;;;;5034924;28;20043;-78
2022/08/27 10:41:59;;;;;;;;;;;22.70;99.90;;;;;;5039489;28;20007;-77
2022/08/27 10:44:27;;;;;;;;;;;22.20;99.90;;;;;;5057152;28;19921;-77
2022/08/27 10:47:03;;;;;;;;;;;22.30;99.90;;;;;;5057270;28;19924;-77
2022/08/27 10:49:48;;;;;;;;;;;22.10;99.90;;;;;;5039828;28;19920;-78
2022/08/27 10:52:25;;;;;;;;;;;22.10;99.90;;;;;;5057092;28;19933;-77
2022/08/27 10:55:11;;;;;;;;;;;22.30;99.90;;;;;;5039234;28;19943;-78
2022/08/27 10:57:40;;;;;;;;;;;22.20;99.90;;;;;;5039939;28;19921;-77
2022/08/27 11:00:12;;;;;;;;;;;22.40;99.90;;;;;;5039080;28;20321;-78
2022/08/27 11:02:42;;;;;;;;;;;22.60;99.90;;;;;;5057256;28;19921;-77
2022/08/27 11:05:15;;;;;;;;;;;22.60;99.90;;;;;;5038945;28;19928;-78
2022/08/27 11:07:42;;;;;;;;;;;22.50;99.90;;;;;;5056730;28;20126;-77
2022/08/27 11:10:17;;;;;;;;;;;22.40;99.90;;;;;;5038841;28;19962;-77
2022/08/27 11:12:43;;;;;;;;;;;22.30;99.90;;;;;;5056933;28;20297;-77
2022/08/27 11:15:10;;;;;;;;;;;22.20;99.90;;;;;;5038948;28;19921;-79
2022/08/27 11:17:41;;;;;;;;;;;22.30;99.90;;;;;;5022247;28;19925;-77
2022/08/27 11:20:15;;;;;;;;;;;22.60;99.90;;;;;;5038861;28;20026;-78
2022/08/27 11:22:43;;;;;;;;;;;22.60;99.90;;;;;;5038813;28;19921;-78
2022/08/27 11:25:21;;;;;;;;;;;22.90;99.90;;;;;;5038479;28;19921;-77
2022/08/27 11:27:47;;;;;;;;;;;23.00;99.90;;;;;;5056410;28;19968;-78
2022/08/27 11:30:22;;;;;;;;;;;22.50;99.90;;;;;;5038145;28;20007;-78
2022/08/27 11:32:54;;;;;;;;;;;22.40;99.90;;;;;;5038676;28;19958;-78
2022/08/27 11:35:26;;;;;;;;;;;22.40;99.90;;;;;;5056788;28;19943;-81
2022/08/27 11:38:10;;;;;;;;;;;22.20;99.90;;;;;;5039059;28;19974;-78
2022/08/27 11:40:54;;;;;;;;;;;22.30;99.90;;;;;;5056043;28;19920;-78
2022/08/27 11:43:21;;;;;;;;;;;22.60;99.90;;;;;;5056451;28;19924;-78
2022/08/27 11:45:57;;;;;;;;;;;22.80;99.90;;;;;;5038414;28;20008;-77
2022/08/27 11:48:23;;;;;;;;;;;22.50;99.90;;;;;;5021955;28;19920;-77
2022/08/27 11:50:53;;;;;;;;;;;22.70;99.90;;;;;;5056282;28;19921;-77
2022/08/27 11:53:27;;;;;;;;;;;22.70;99.90;;;;;;5055665;28;20019;-77
2022/08/27 11:55:53;;;;;;;;;;;22.70;99.90;;;;;;5055821;28;19994;-77
2022/08/27 11:58:20;;;;;;;;;;;22.70;99.90;;;;;;5037866;28;19921;-76
2022/08/27 12:00:46;;;;;;;;;;;22.80;99.90;;;;;;5055609;28;19968;-78
2022/08/27 12:03:18;;;;;;;;;;;22.40;99.90;;;;;;5021974;28;19921;-78
2022/08/27 12:05:47;;;;;;;;;;;22.50;99.90;;;;;;5055458;28;19986;-78
2022/08/27 12:08:17;;;;;;;;;;;22.60;99.90;;;;;;5055702;28;19971;-77
2022/08/27 12:11:05;;;;;;;;;;;22.70;99.90;;;;;;5021277;28;19935;-77
2022/08/27 12:13:49;;;;;;;;;;;23.30;99.90;;;;;;5056134;28;19974;-78
2022/08/27 12:16:15;;;;;;;;;;;23.80;99.90;;;;;;5055391;28;19926;-81
2022/08/27 12:18:59;;;;;;;;;;;24.10;99.00;;;;;;5037243;28;20015;-78
2022/08/27 12:21:45;;;;;;;;;;;23.80;98.90;;;;;;5038668;28;20252;-80
2022/08/27 12:24:14;;;;;;;;;;;23.30;99.90;;;;;;5055346;28;19921;-79
2022/08/27 12:26:41;;;;;;;;;;;23.60;99.80;;;;;;5020961;28;19921;-79
2022/08/27 12:29:16;;;;;;;;;;;23.90;98.60;;;;;;5037685;28;20482;-78
2022/08/27 12:31:42;;;;;;;;;;;24.10;98.30;;;;;;5038188;28;20284;-78
2022/08/27 12:34:13;;;;;;;;;;;23.90;98.50;;;;;;5055184;28;19924;-79
2022/08/27 12:36:38;;;;;;;;;;;24.20;98.60;;;;;;5037471;28;19921;-78
2022/08/27 12:39:04;;;;;;;;;;;23.80;99.00;;;;;;5055283;28;19928;-77
2022/08/27 12:41:31;;;;;;;;;;;23.40;99.20;;;;;;5020768;28;19920;-79
2022/08/27 12:44:07;;;;;;;;;;;23.30;99.70;;;;;;5037208;28;19975;-79
2022/08/27 12:46:35;;;;;;;;;;;23.50;99.90;;;;;;5037471;28;19920;-79
2022/08/27 12:49:01;;;;;;;;;;;23.80;99.50;;;;;;5037457;28;19928;-78
2022/08/27 12:51:34;;;;;;;;;;;23.80;99.90;;;;;;5037150;28;19920;-79
2022/08/27 12:54:19;;;;;;;;;;;24.10;98.70;;;;;;5054708;28;19943;-79
2022/08/27 12:56:56;;;;;;;;;;;24.10;99.50;;;;;;5054671;28;19921;-78
2022/08/27 12:59:40;;;;;;;;;;;23.90;99.70;;;;;;5054527;28;19921;-77
2022/08/27 13:02:15;;;;;;;;;;;23.50;99.60;;;;;;5053707;28;19972;-77
2022/08/27 13:04:40;;;;;;;;;;;23.70;98.90;;;;;;5053769;28;19927;-78
2022/08/27 13:07:06;;;;;;;;;;;23.30;99.30;;;;;;5036855;28;19925;-78
2022/08/27 13:09:32;;;;;;;;;;;23.40;99.40;;;;;;5036641;28;19921;-79
2022/08/27 13:11:58;;;;;;;;;;;23.60;98.50;;;;;;5020551;28;20349;-79
2022/08/27 13:14:24;;;;;;;;;;;23.60;99.30;;;;;;5020949;28;19947;-80
2022/08/27 13:17:09;;;;;;;;;;;23.60;99.20;;;;;;5036597;28;19943;-79
2022/08/27 13:19:35;;;;;;;;;;;23.50;98.90;;;;;;5036499;28;19928;-80
2022/08/27 13:22:01;;;;;;;;;;;23.60;99.90;;;;;;5037118;28;19921;-81
2022/08/27 13:24:26;;;;;;;;;;;23.60;99.80;;;;;;5055197;28;20362;-80
2022/08/27 13:26:52;;;;;;;;;;;23.70;99.60;;;;;;5037561;28;20330;-81
2022/08/27 13:29:18;;;;;;;;;;;23.60;98.90;;;;;;5054215;28;20296;-80
2022/08/27 13:31:44;;;;;;;;;;;23.60;98.90;;;;;;5036174;28;19974;-80
2022/08/27 13:34:09;;;;;;;;;;;23.60;99.50;;;;;;5036556;28;19921;-80
2022/08/27 13:37:07;;;;;;;;;;;23.80;99.20;;;;;;5020342;28;19944;-81
2022/08/27 13:39:34;;;;;;;;;;;24.40;98.80;;;;;;5009345;28;19924;-80
2022/08/27 13:42:00;;;;;;;;;;;23.70;98.90;;;;;;5036155;28;19923;-77
2022/08/27 13:44:25;;;;;;;;;;;23.90;99.00;;;;;;5036829;28;19916;-79
2022/08/27 13:46:59;;;;;;;;;;;23.70;98.40;;;;;;5053827;28;19916;-80
2022/08/27 13:49:25;;;;;;;;;;;24.10;98.40;;;;;;5036293;28;20008;-79
2022/08/27 13:52:23;;;;;;;;;;;23.90;98.70;;;;;;5019555;28;19960;-79
2022/08/27 13:54:50;;;;;;;;;;;23.90;98.20;;;;;;5009281;28;20276;-79
2022/08/27 13:57:30;;;;;;;;;;;23.60;98.60;;;;;;5035723;28;20348;-80
2022/08/27 13:59:55;;;;;;;;;;;23.60;99.10;;;;;;5054176;28;19979;-80
2022/08/27 14:02:27;;;;;;;;;;;23.40;98.90;;;;;;5019751;28;19920;-79
2022/08/27 14:05:04;;;;;;;;;;;23.80;98.80;;;;;;5053523;28;19927;-79
2022/08/27 14:07:32;;;;;;;;;;;23.90;98.60;;;;;;5055397;28;19928;-79
2022/08/27 14:10:00;;;;;;;;;;;23.00;99.40;;;;;;5022225;28;19953;-79
2022/08/27 14:12:26;;;;;;;;;;;22.80;99.90;;;;;;5037511;28;19928;-79
2022/08/27 14:14:53;;;;;;;;;;;22.50;99.90;;;;;;5021723;28;19920;-79
2022/08/27 14:17:27;;;;;;;;;;;22.50;99.90;;;;;;5042608;28;19935;-79
2022/08/27 14:19:52;;;;;;;;;;;22.70;99.90;;;;;;5060935;28;20277;-79
2022/08/27 14:22:18;;;;;;;;;;;23.10;99.80;;;;;;5059793;28;19921;-79
2022/08/27 14:24:43;;;;;;;;;;;23.30;99.20;;;;;;5042603;28;19921;-79
2022/08/27 14:27:11;;;;;;;;;;;23.40;99.40;;;;;;5060642;28;20311;-79
2022/08/27 14:29:36;;;;;;;;;;;23.40;99.40;;;;;;5060088;28;20356;-80
2022/08/27 14:32:02;;;;;;;;;;;23.20;99.50;;;;;;5060387;28;19922;-79
2022/08/27 14:34:28;;;;;;;;;;;22.60;99.90;;;;;;5042231;28;20459;-78